createdAt,value
2023-05-06T00:01:46.636Z,21.73
2023-05-06T00:03:52.354Z,21.58
2023-05-06T00:05:55.141Z,23.60
2023-05-06T00:07:58.761Z,21.38
2023-05-06T00:10:01.738Z,20.92
2023-05-06T00:12:05.698Z,20.23
2023-05-06T00:14:08.475Z,27.20
2023-05-06T00:16:11.335Z,19.55
2023-05-06T00:18:15.423Z,17.55
2023-05-06T00:20:20.908Z,24.10
2023-05-06T00:22:23.460Z,24.67
2023-05-06T00:24:25.896Z,20.65
2023-05-06T00:26:28.420Z,23.30
2023-05-06T00:28:31.187Z,23.15
2023-05-06T00:30:33.863Z,22.05
2023-05-06T00:34:41.358Z,19.48
2023-05-06T00:36:46.446Z,22.13
2023-05-06T00:38:50.260Z,19.38
2023-05-06T00:40:52.946Z,22.42
2023-05-06T00:42:55.994Z,20.20
2023-05-06T00:44:58.736Z,19.42
2023-05-06T00:47:01.825Z,23.27
2023-05-06T00:49:04.486Z,22.75
2023-05-06T00:51:07.161Z,23.88
2023-05-06T00:53:12.695Z,22.33
2023-05-06T00:55:15.625Z,23.98
2023-05-06T00:57:18.419Z,21.42
2023-05-06T00:59:21.503Z,24.42
2023-05-06T01:01:24.559Z,24.27
2023-05-06T01:03:30.004Z,23.70
2023-05-06T01:05:52.409Z,21.38
2023-05-06T01:08:03.869Z,24.98
2023-05-06T01:10:19.013Z,24.65
2023-05-06T01:12:30.823Z,27.08
2023-05-06T01:14:39.889Z,25.17
2023-05-06T01:16:45.118Z,30.77
2023-05-06T01:18:50.933Z,31.88
2023-05-06T01:20:56.074Z,30.35
2023-05-06T01:22:58.815Z,27.33
2023-05-06T01:25:04.328Z,29.92
2023-05-06T01:27:07.434Z,29.95
2023-05-06T01:29:11.623Z,31.00
2023-05-06T01:31:25.015Z,30.23
2023-05-06T01:33:37.235Z,30.33
2023-05-06T01:35:53.764Z,30.23
2023-05-06T01:38:06.156Z,29.48
2023-05-06T01:40:12.838Z,27.70
2023-05-06T01:42:16.716Z,33.47
2023-05-06T01:44:22.479Z,32.05
2023-05-06T01:46:25.913Z,31.10
2023-05-06T01:48:34.047Z,29.27
2023-05-06T01:50:37.790Z,29.88
2023-05-06T01:52:41.431Z,31.50
2023-05-06T01:54:43.933Z,31.75
2023-05-06T01:56:50.688Z,31.75
2023-05-06T01:58:53.981Z,28.75
2023-05-06T02:00:56.610Z,29.67
2023-05-06T02:03:01.372Z,29.33
2023-05-06T02:05:07.458Z,34.72
2023-05-06T02:07:15.820Z,31.15
2023-05-06T02:09:19.980Z,35.28
2023-05-06T02:11:28.989Z,35.00
2023-05-06T02:13:40.850Z,31.30
2023-05-06T02:15:45.028Z,29.77
2023-05-06T02:17:52.184Z,35.28
2023-05-06T02:19:54.916Z,36.45
2023-05-06T02:21:58.713Z,31.67
2023-05-06T02:24:01.317Z,31.83
2023-05-06T02:26:04.586Z,30.92
2023-05-06T02:28:09.049Z,30.05
2023-05-06T02:30:15.166Z,23.20
2023-05-06T02:32:18.150Z,31.33
2023-05-06T02:34:20.890Z,28.25
2023-05-06T02:36:25.550Z,25.75
2023-05-06T02:38:30.528Z,22.88
2023-05-06T02:40:33.228Z,18.80
2023-05-06T02:42:36.128Z,21.02
2023-05-06T02:44:38.812Z,26.85
2023-05-06T02:46:45.049Z,24.38
2023-05-06T02:48:48.023Z,21.35
2023-05-06T02:50:51.512Z,26.02
2023-05-06T02:52:53.921Z,23.90
2023-05-06T02:54:56.522Z,26.98
2023-05-06T02:56:59.270Z,30.95
2023-05-06T02:59:04.839Z,26.50
2023-05-06T03:01:07.768Z,30.40
2023-05-06T03:03:13.367Z,23.73
2023-05-06T03:05:16.318Z,24.40
2023-05-06T03:07:18.969Z,25.67
2023-05-06T03:09:21.933Z,24.05
2023-05-06T03:11:25.082Z,22.65
2023-05-06T03:13:27.828Z,21.63
2023-05-06T03:15:30.595Z,17.85
2023-05-06T03:17:33.146Z,20.45
2023-05-06T03:19:39.689Z,16.17
2023-05-06T03:21:44.903Z,17.05
2023-05-06T03:23:47.813Z,18.38
2023-05-06T03:25:51.522Z,16.88
2023-05-06T03:27:55.885Z,18.65
2023-05-06T03:29:59.561Z,20.85
2023-05-06T03:32:04.222Z,21.45
2023-05-06T03:34:11.581Z,16.60
2023-05-06T03:36:18.616Z,18.23
2023-05-06T03:38:24.283Z,15.18
2023-05-06T03:40:33.817Z,17.95
2023-05-06T03:42:36.689Z,14.75
2023-05-06T03:44:39.993Z,14.17
2023-05-06T03:46:42.664Z,9.88
2023-05-06T03:48:45.616Z,14.18
2023-05-06T03:50:51.815Z,20.27
2023-05-06T03:52:57.534Z,15.10
2023-05-06T03:55:05.516Z,18.10
2023-05-06T03:57:11.063Z,16.20
2023-05-06T03:59:14.002Z,15.82
2023-05-06T04:01:18.337Z,15.43
2023-05-06T04:03:20.990Z,12.82
2023-05-06T04:05:28.739Z,7.68
2023-05-06T04:07:38.734Z,7.00
2023-05-06T04:09:45.041Z,7.20
2023-05-06T04:11:47.506Z,9.63
2023-05-06T04:13:53.022Z,12.73
2023-05-06T04:15:58.672Z,20.13
2023-05-06T04:18:08.072Z,19.27
2023-05-06T04:20:14.595Z,24.17
2023-05-06T04:22:17.579Z,27.50
2023-05-06T04:24:21.636Z,22.40
2023-05-06T04:26:26.812Z,26.10
2023-05-06T04:28:29.641Z,24.80
2023-05-06T04:30:32.628Z,22.67
2023-05-06T04:32:36.786Z,20.47
2023-05-06T04:34:40.725Z,13.52
2023-05-06T04:36:51.251Z,14.52
2023-05-06T04:39:04.118Z,19.35
2023-05-06T04:41:06.681Z,17.55
2023-05-06T04:43:12.342Z,19.42
2023-05-06T04:45:15.040Z,24.65
2023-05-06T04:47:20.635Z,21.15
2023-05-06T04:49:27.550Z,29.77
2023-05-06T04:51:32.118Z,30.95
2023-05-06T04:53:39.450Z,29.48
2023-05-06T04:55:42.505Z,26.20
2023-05-06T04:57:45.646Z,30.27
2023-05-06T04:59:50.888Z,24.23
2023-05-06T05:01:56.605Z,29.55
2023-05-06T05:04:01.654Z,29.17
2023-05-06T05:06:08.165Z,28.88
2023-05-06T05:08:13.551Z,26.10
2023-05-06T05:10:26.042Z,30.13
2023-05-06T05:12:30.980Z,25.13
2023-05-06T05:14:34.474Z,31.80
2023-05-06T05:16:40.818Z,31.43
2023-05-06T05:18:44.229Z,27.23
2023-05-06T05:20:54.593Z,26.75
2023-05-06T05:22:57.646Z,26.45
2023-05-06T05:25:00.610Z,32.38
2023-05-06T05:27:03.723Z,31.35
2023-05-06T05:29:06.874Z,29.83
2023-05-06T05:31:10.729Z,27.88
2023-05-06T05:33:16.499Z,30.67
2023-05-06T05:35:20.923Z,32.53
2023-05-06T05:37:25.748Z,30.73
2023-05-06T05:39:32.370Z,27.65
2023-05-06T05:41:35.758Z,33.10
2023-05-06T05:43:38.538Z,32.65
2023-05-06T05:45:43.260Z,28.77
2023-05-06T05:47:49.074Z,29.40
2023-05-06T05:49:55.227Z,29.42
2023-05-06T05:51:59.992Z,28.25
2023-05-06T05:56:07.709Z,23.50
2023-05-06T05:58:13.103Z,28.35
2023-05-06T06:00:19.321Z,29.02
2023-05-06T06:02:21.969Z,29.60
2023-05-06T06:04:24.805Z,26.08
2023-05-06T06:06:50.446Z,26.48
2023-05-06T06:09:15.072Z,25.65
2023-05-06T06:11:38.412Z,26.73
2023-05-06T06:13:42.310Z,27.48
2023-05-06T06:15:47.443Z,30.00
2023-05-06T06:17:53.050Z,29.15
2023-05-06T06:19:57.508Z,28.33
2023-05-06T06:22:02.850Z,31.70
2023-05-06T06:24:08.741Z,33.20
2023-05-06T06:26:12.401Z,34.17
2023-05-06T06:28:15.573Z,31.83
2023-05-06T06:30:19.491Z,33.40
2023-05-06T06:32:28.742Z,33.95
2023-05-06T06:34:31.501Z,33.28
2023-05-06T06:36:34.170Z,32.70
2023-05-06T06:38:40.338Z,32.92
2023-05-06T06:40:43.606Z,35.03
2023-05-06T06:42:47.227Z,34.47
2023-05-06T06:45:23.607Z,33.17
2023-05-06T06:47:30.136Z,30.65
2023-05-06T06:49:32.927Z,35.33
2023-05-06T06:51:35.814Z,32.22
2023-05-06T06:53:43.426Z,33.30
2023-05-06T06:55:48.179Z,30.73
2023-05-06T06:58:10.666Z,33.03
2023-05-06T07:00:33.156Z,34.05
2023-05-06T07:02:36.035Z,28.52
2023-05-06T07:04:39.704Z,29.75
2023-05-06T07:06:42.570Z,32.58
2023-05-06T07:08:47.736Z,33.33
2023-05-06T07:10:50.459Z,33.10
2023-05-06T07:13:00.598Z,32.75
2023-05-06T07:15:07.029Z,31.63
2023-05-06T07:17:09.816Z,32.33
2023-05-06T07:19:12.431Z,34.38
2023-05-06T07:21:15.077Z,31.90
2023-05-06T07:23:17.671Z,31.63
2023-05-06T07:25:23.111Z,33.60
2023-05-06T07:27:27.548Z,32.47
2023-05-06T07:29:30.752Z,26.67
2023-05-06T07:31:34.090Z,27.85
2023-05-06T07:33:36.898Z,28.55
2023-05-06T07:35:39.388Z,27.33
2023-05-06T07:37:42.088Z,29.88
2023-05-06T07:39:44.769Z,30.55
2023-05-06T07:41:51.286Z,29.83
2023-05-06T07:43:54.052Z,32.80
2023-05-06T07:46:02.737Z,32.15
2023-05-06T07:48:06.283Z,32.20
2023-05-06T07:50:10.770Z,32.25
2023-05-06T07:54:20.123Z,30.98
2023-05-06T07:56:22.562Z,32.03
2023-05-06T07:58:31.329Z,30.27
2023-05-06T08:00:34.154Z,28.20
2023-05-06T08:02:38.595Z,30.60
2023-05-06T08:04:41.164Z,29.08
2023-05-06T08:06:46.508Z,29.90
2023-05-06T08:08:49.320Z,30.08
2023-05-06T08:10:51.902Z,30.58
2023-05-06T08:12:57.096Z,26.40
2023-05-06T08:15:02.391Z,31.58
2023-05-06T08:17:04.841Z,17.73
2023-05-06T08:19:07.732Z,21.83
2023-05-06T08:21:10.515Z,19.70
2023-05-06T08:23:12.976Z,15.65
2023-05-06T08:25:15.788Z,15.25
2023-05-06T08:27:18.461Z,16.17
2023-05-06T08:29:21.118Z,16.30
2023-05-06T08:31:26.335Z,15.48
2023-05-06T08:33:31.133Z,14.45
2023-05-06T08:35:33.981Z,11.63
2023-05-06T08:37:36.717Z,12.02
2023-05-06T08:39:39.270Z,11.82
2023-05-06T08:41:47.582Z,15.68
2023-05-06T08:43:54.550Z,9.50
2023-05-06T08:45:57.572Z,10.88
2023-05-06T08:48:02.963Z,10.23
2023-05-06T08:50:06.825Z,11.20
2023-05-06T08:52:09.436Z,10.70
2023-05-06T08:54:13.069Z,9.68
2023-05-06T08:56:16.971Z,8.90
2023-05-06T08:58:20.891Z,10.20
2023-05-06T09:00:23.577Z,9.45
2023-05-06T09:02:27.698Z,10.10
2023-05-06T09:04:33.032Z,10.48
2023-05-06T09:06:35.869Z,11.77
2023-05-06T09:08:38.291Z,11.60
2023-05-06T09:10:44.269Z,11.05
2023-05-06T09:12:46.903Z,10.90
2023-05-06T09:14:51.502Z,11.50
2023-05-06T09:16:54.235Z,12.10
2023-05-06T09:18:57.272Z,12.75
2023-05-06T09:21:04.960Z,12.80
2023-05-06T09:23:12.105Z,13.25
2023-05-06T09:25:14.970Z,12.73
2023-05-06T09:27:21.829Z,10.55
2023-05-06T09:29:30.642Z,13.07
2023-05-06T09:31:33.417Z,15.38
2023-05-06T09:33:37.908Z,14.95
2023-05-06T09:35:42.582Z,19.70
2023-05-06T09:37:49.075Z,22.42
2023-05-06T09:39:54.838Z,21.58
2023-05-06T09:41:57.567Z,15.85
2023-05-06T09:44:05.856Z,17.50
2023-05-06T09:46:09.115Z,25.70
2023-05-06T09:48:11.896Z,18.77
2023-05-06T09:50:15.557Z,22.98
2023-05-06T09:52:19.649Z,20.48
2023-05-06T09:56:28.250Z,18.27
2023-05-06T09:58:32.291Z,17.20
2023-05-06T10:02:59.276Z,21.35
2023-05-06T10:05:06.301Z,31.73
2023-05-06T10:07:17.260Z,23.20
2023-05-06T10:09:22.339Z,25.67
2023-05-06T10:11:29.637Z,34.10
2023-05-06T10:13:37.196Z,28.67
2023-05-06T10:15:40.172Z,26.17
2023-05-06T10:17:45.442Z,30.25
2023-05-06T10:19:50.461Z,25.00
2023-05-06T10:21:58.143Z,17.73
2023-05-06T10:24:07.754Z,24.55
2023-05-06T10:26:12.270Z,31.10
2023-05-06T10:28:31.541Z,31.88
2023-05-06T10:30:35.665Z,49.40
2023-05-06T10:32:43.583Z,47.15
2023-05-06T10:34:53.983Z,50.90
2023-05-06T10:36:58.374Z,51.15
2023-05-06T10:39:09.954Z,45.15
2023-05-06T10:41:13.994Z,53.05
2023-05-06T10:46:01.447Z,39.78
2023-05-06T10:48:09.250Z,47.45
2023-05-06T10:50:23.072Z,53.17
2023-05-06T10:52:26.381Z,56.67
2023-05-06T10:54:29.083Z,26.00
2023-05-06T10:56:37.875Z,34.88
2023-05-06T10:58:47.755Z,32.22
2023-05-06T11:00:58.277Z,36.03
2023-05-06T11:03:09.216Z,29.90
2023-05-06T11:05:12.085Z,37.65
2023-05-06T11:07:15.941Z,37.43
2023-05-06T11:09:19.951Z,29.05
2023-05-06T11:11:50.079Z,33.35
2023-05-06T11:13:55.716Z,23.60
2023-05-06T11:16:06.686Z,22.65
2023-05-06T11:18:39.554Z,21.88
2023-05-06T11:20:42.279Z,23.90
2023-05-06T11:22:44.919Z,27.63
2023-05-06T11:24:47.544Z,29.48
2023-05-06T11:26:50.902Z,24.13
2023-05-06T11:28:59.747Z,27.33
2023-05-06T11:31:04.691Z,21.40
2023-05-06T11:33:21.840Z,22.67
2023-05-06T11:35:26.476Z,19.48
2023-05-06T11:37:30.079Z,21.23
2023-05-06T11:39:39.877Z,20.13
2023-05-06T11:41:43.708Z,18.10
2023-05-06T11:43:50.082Z,14.98
2023-05-06T11:45:56.239Z,20.13
2023-05-06T11:47:58.756Z,16.75
2023-05-06T11:50:08.162Z,16.30
2023-05-06T11:52:18.650Z,14.65
2023-05-06T11:54:23.076Z,13.32
2023-05-06T11:56:27.627Z,14.10
2023-05-06T11:58:30.568Z,17.20
2023-05-06T12:00:33.581Z,17.65
2023-05-06T12:02:39.079Z,17.65
2023-05-06T12:04:53.308Z,16.23
2023-05-06T12:06:59.855Z,24.13
2023-05-06T12:09:06.010Z,28.75
2023-05-06T12:13:12.900Z,16.48
2023-05-06T12:15:24.187Z,15.32
2023-05-06T12:17:27.445Z,16.80
2023-05-06T12:19:36.278Z,16.50
2023-05-06T12:21:39.243Z,16.88
2023-05-06T12:23:54.155Z,16.52
2023-05-06T12:26:04.650Z,20.38
2023-05-06T12:28:16.318Z,14.13
2023-05-06T12:30:33.790Z,13.07
2023-05-06T12:32:57.517Z,13.50
2023-05-06T12:35:08.837Z,17.45
2023-05-06T12:37:11.704Z,16.17
2023-05-06T12:39:15.175Z,13.85
2023-05-06T12:41:20.591Z,14.55
2023-05-06T12:43:30.526Z,13.70
2023-05-06T12:45:33.708Z,14.10
2023-05-06T12:47:37.417Z,13.15
2023-05-06T12:50:02.897Z,11.30
2023-05-06T12:52:06.996Z,11.27
2023-05-06T12:56:27.162Z,18.70
2023-05-06T12:58:29.857Z,6.97
2023-05-06T13:00:32.422Z,9.93
2023-05-06T13:02:35.057Z,11.65
2023-05-06T13:04:37.754Z,9.57
2023-05-06T13:06:43.127Z,7.22
2023-05-06T13:08:45.667Z,6.90
2023-05-06T13:10:48.518Z,6.72
2023-05-06T13:12:51.041Z,5.95
2023-05-06T13:14:53.610Z,5.65
2023-05-06T13:16:56.425Z,5.70
2023-05-06T13:18:59.384Z,7.10
2023-05-06T13:21:02.114Z,6.95
2023-05-06T13:23:07.483Z,7.38
2023-05-06T13:25:11.746Z,7.80
2023-05-06T13:27:14.319Z,7.82
2023-05-06T13:29:17.063Z,6.10
2023-05-06T13:31:19.730Z,5.18
2023-05-06T13:33:26.532Z,5.57
2023-05-06T13:35:30.619Z,8.60
2023-05-06T13:37:33.300Z,7.95
2023-05-06T13:39:38.826Z,6.97
2023-05-06T13:41:41.700Z,7.07
2023-05-06T13:43:45.339Z,8.65
2023-05-06T13:45:48.214Z,9.45
2023-05-06T13:47:51.818Z,10.32
2023-05-06T13:49:54.311Z,10.68
2023-05-06T13:51:57.646Z,11.45
2023-05-06T13:54:01.416Z,9.38
2023-05-06T13:56:07.100Z,10.07
2023-05-06T13:58:12.509Z,10.40
2023-05-06T14:00:16.088Z,9.68
2023-05-06T14:02:39.215Z,8.80
2023-05-06T14:04:42.261Z,9.13
2023-05-06T14:06:44.935Z,8.63
2023-05-06T14:08:48.200Z,9.15
2023-05-06T14:10:53.742Z,8.90
2023-05-06T14:12:59.005Z,8.57
2023-05-06T14:15:01.684Z,8.57
2023-05-06T14:17:04.983Z,10.55
2023-05-06T14:19:07.952Z,10.05
2023-05-06T14:21:10.746Z,10.27
2023-05-06T14:23:13.481Z,10.38
2023-05-06T14:25:16.219Z,10.10
2023-05-06T14:27:18.994Z,11.38
2023-05-06T14:29:24.171Z,10.80
2023-05-06T14:31:26.864Z,10.88
2023-05-06T14:33:29.441Z,13.25
2023-05-06T14:37:36.223Z,12.77
2023-05-06T14:39:42.718Z,12.55
2023-05-06T14:41:46.028Z,13.98
2023-05-06T14:43:48.699Z,13.02
2023-05-06T14:45:54.395Z,12.57
2023-05-06T14:47:58.257Z,12.05
2023-05-06T14:50:01.013Z,12.40
2023-05-06T14:52:07.900Z,12.27
2023-05-06T14:54:11.398Z,11.75
2023-05-06T14:56:14.147Z,10.52
2023-05-06T14:58:19.424Z,10.70
2023-05-06T15:00:22.346Z,10.10
2023-05-06T15:02:27.818Z,10.73
2023-05-06T15:04:30.784Z,10.88
2023-05-06T15:06:33.274Z,9.68
2023-05-06T15:08:35.925Z,9.50
2023-05-06T15:10:38.688Z,8.57
2023-05-06T15:12:41.517Z,8.75
2023-05-06T15:14:44.260Z,8.13
2023-05-06T15:16:55.810Z,8.15
2023-05-06T15:19:01.083Z,8.02
2023-05-06T15:21:03.744Z,7.85
2023-05-06T15:23:06.496Z,7.78
2023-05-06T15:25:16.636Z,7.85
2023-05-06T15:27:25.552Z,7.65
2023-05-06T15:29:28.332Z,7.38
2023-05-06T15:31:32.594Z,6.60
2023-05-06T15:35:40.349Z,6.53
2023-05-06T15:37:43.064Z,7.00
2023-05-06T15:39:46.814Z,6.60
2023-05-06T15:41:49.446Z,7.57
2023-05-06T15:43:52.285Z,6.95
2023-05-06T15:45:54.895Z,7.15
2023-05-06T15:47:58.386Z,6.57
2023-05-06T15:50:01.554Z,6.82
2023-05-06T15:52:07.281Z,6.87
2023-05-06T15:54:10.001Z,6.60
2023-05-06T15:56:19.317Z,7.22
2023-05-06T15:58:22.102Z,8.50
2023-05-06T16:00:24.772Z,8.95
2023-05-06T16:02:27.856Z,8.65
2023-05-06T16:04:31.036Z,8.30
2023-05-06T16:06:35.442Z,8.43
2023-05-06T16:08:41.953Z,9.48
2023-05-06T16:10:44.914Z,8.35
2023-05-06T16:12:48.635Z,7.70
2023-05-06T16:14:51.383Z,7.30
2023-05-06T16:16:54.112Z,7.22
2023-05-06T16:18:56.748Z,7.70
2023-05-06T16:20:59.342Z,8.48
2023-05-06T16:23:03.006Z,7.70
2023-05-06T16:25:09.055Z,8.05
2023-05-06T16:27:11.460Z,8.48
2023-05-06T16:29:15.835Z,8.93
2023-05-06T16:31:18.659Z,8.80
2023-05-06T16:33:22.750Z,9.10
2023-05-06T16:37:29.377Z,9.30
2023-05-06T16:39:32.068Z,9.10
2023-05-06T16:41:37.124Z,9.10
2023-05-06T16:43:46.584Z,9.68
2023-05-06T16:45:49.438Z,10.07
2023-05-06T16:47:51.882Z,9.73
2023-05-06T16:49:55.453Z,10.65
2023-05-06T16:52:00.699Z,10.38
2023-05-06T16:54:03.631Z,10.07
2023-05-06T16:56:07.302Z,10.98
2023-05-06T16:58:20.646Z,10.25
2023-05-06T17:00:23.749Z,10.60
2023-05-06T17:02:27.802Z,10.38
2023-05-06T17:06:33.507Z,9.27
2023-05-06T17:08:37.245Z,9.02
2023-05-06T17:10:40.408Z,7.47
2023-05-06T17:12:44.969Z,7.00
2023-05-06T17:14:52.327Z,8.15
2023-05-06T17:16:59.126Z,6.78
2023-05-06T17:19:02.588Z,7.10
2023-05-06T17:21:09.039Z,6.28
2023-05-06T17:23:17.753Z,6.22
2023-05-06T17:25:20.632Z,6.13
2023-05-06T17:27:23.594Z,6.20
2023-05-06T17:29:26.255Z,6.20
2023-05-06T17:31:38.399Z,7.30
2023-05-06T17:33:40.913Z,6.68
2023-05-06T17:35:43.509Z,7.10
2023-05-06T17:37:46.608Z,6.88
2023-05-06T17:39:49.330Z,7.57
2023-05-06T17:41:52.045Z,7.65
2023-05-06T17:43:54.833Z,7.35
2023-05-06T17:45:57.426Z,7.30
2023-05-06T17:48:11.652Z,8.05
2023-05-06T17:50:15.365Z,8.18
2023-05-06T17:52:18.116Z,7.85
2023-05-06T17:54:20.912Z,7.55
2023-05-06T17:56:26.904Z,8.48
2023-05-06T17:58:29.595Z,8.97
2023-05-06T18:00:32.422Z,8.73
2023-05-06T18:02:43.635Z,8.35
2023-05-06T18:04:49.492Z,10.25
2023-05-06T18:06:52.290Z,10.18
2023-05-06T18:08:57.672Z,11.05
2023-05-06T18:11:00.319Z,9.73
2023-05-06T18:13:02.964Z,9.95
2023-05-06T18:15:07.273Z,10.88
2023-05-06T18:17:09.883Z,10.73
2023-05-06T18:19:12.770Z,10.80
2023-05-06T18:21:18.014Z,11.13
2023-05-06T18:23:20.576Z,11.25
2023-05-06T18:25:23.755Z,10.60
2023-05-06T18:27:26.304Z,10.55
2023-05-06T18:29:30.642Z,11.73
2023-05-06T18:31:33.489Z,11.48
2023-05-06T18:33:36.110Z,10.40
2023-05-06T18:35:38.726Z,11.52
2023-05-06T18:37:43.890Z,11.05
2023-05-06T18:39:46.856Z,11.45
2023-05-06T18:41:53.894Z,11.32
2023-05-06T18:44:05.993Z,11.98
2023-05-06T18:46:08.660Z,11.80
2023-05-06T18:48:12.415Z,11.77
2023-05-06T18:50:16.461Z,12.25
2023-05-06T18:52:28.332Z,11.90
2023-05-06T18:54:33.569Z,11.73
2023-05-06T18:56:37.591Z,12.60
2023-05-06T18:58:41.191Z,12.98
2023-05-06T19:00:47.686Z,12.82
2023-05-06T19:02:51.278Z,13.32
2023-05-06T19:04:53.902Z,11.48
2023-05-06T19:06:56.615Z,13.30
2023-05-06T19:09:03.670Z,12.15
2023-05-06T19:11:14.949Z,11.60
2023-05-06T19:13:17.678Z,11.60
2023-05-06T19:15:23.619Z,11.73
2023-05-06T19:17:33.352Z,12.30
2023-05-06T19:19:35.999Z,11.30
2023-05-06T19:21:38.759Z,11.93
2023-05-06T19:23:41.731Z,12.05
2023-05-06T19:25:46.293Z,13.25
2023-05-06T19:27:57.240Z,12.82
2023-05-06T19:30:00.144Z,12.00
2023-05-06T19:32:02.861Z,13.68
2023-05-06T19:34:05.568Z,12.60
2023-05-06T19:36:10.082Z,14.00
2023-05-06T19:38:12.565Z,13.33
2023-05-06T19:40:15.575Z,13.50
2023-05-06T19:42:18.236Z,13.68
2023-05-06T19:44:24.776Z,14.02
2023-05-06T19:46:27.678Z,12.85
2023-05-06T19:48:34.949Z,13.02
2023-05-06T19:50:49.217Z,13.93
2023-05-06T19:52:51.899Z,12.77
2023-05-06T19:54:57.516Z,13.07
2023-05-06T19:57:00.189Z,15.07
2023-05-06T19:59:06.454Z,14.75
2023-05-06T20:01:12.068Z,14.95
2023-05-06T20:03:19.251Z,13.80
2023-05-06T20:05:22.789Z,13.43
2023-05-06T20:07:28.213Z,14.23
2023-05-06T20:09:30.762Z,14.80
2023-05-06T20:11:33.358Z,16.30
2023-05-06T20:13:36.518Z,16.35
2023-05-06T20:15:39.012Z,14.45
2023-05-06T20:17:48.557Z,13.95
2023-05-06T20:19:51.226Z,14.68
2023-05-06T20:21:54.242Z,16.30
2023-05-06T20:23:57.136Z,15.02
2023-05-06T20:25:59.979Z,15.52
2023-05-06T20:28:03.724Z,15.77
2023-05-06T20:30:08.283Z,15.90
2023-05-06T20:32:17.625Z,15.13
2023-05-06T20:34:23.132Z,16.77
2023-05-06T20:36:26.997Z,17.75
2023-05-06T20:38:50.413Z,18.58
2023-05-06T20:40:53.104Z,18.20
2023-05-06T20:42:56.185Z,15.45
2023-05-06T20:45:01.333Z,16.98
2023-05-06T20:47:04.228Z,16.35
2023-05-06T20:49:07.503Z,17.75
2023-05-06T20:51:28.223Z,16.23
2023-05-06T20:53:30.961Z,19.27
2023-05-06T20:55:33.810Z,18.45
2023-05-06T20:57:42.643Z,17.70
2023-05-06T20:59:45.365Z,18.42
2023-05-06T21:01:47.843Z,19.77
2023-05-06T21:03:51.224Z,18.05
2023-05-06T21:05:53.946Z,18.70
2023-05-06T21:07:59.260Z,21.63
2023-05-06T21:10:04.040Z,19.02
2023-05-06T21:12:06.639Z,19.55
2023-05-06T21:14:10.518Z,21.30
2023-05-06T21:16:13.194Z,19.73
2023-05-06T21:18:17.212Z,20.90
2023-05-06T21:20:22.777Z,19.13
2023-05-06T21:22:26.207Z,20.40
2023-05-06T21:24:31.466Z,21.15
2023-05-06T21:26:34.056Z,22.20
2023-05-06T21:28:37.435Z,22.45
2023-05-06T21:30:42.927Z,22.17
2023-05-06T21:32:45.579Z,22.98
2023-05-06T21:34:48.130Z,22.50
2023-05-06T21:36:50.903Z,22.35
2023-05-06T21:39:01.958Z,23.23
2023-05-06T21:41:07.502Z,22.52
2023-05-06T21:43:10.372Z,21.85
2023-05-06T21:45:13.516Z,24.08
2023-05-06T21:47:16.283Z,25.30
2023-05-06T21:49:19.645Z,23.13
2023-05-06T21:51:23.000Z,22.50
2023-05-06T21:53:25.585Z,24.48
2023-05-06T21:55:28.139Z,25.15
2023-05-06T21:57:33.493Z,23.52
2023-05-06T21:59:36.567Z,23.67
2023-05-06T22:01:39.334Z,20.63
2023-05-06T22:03:42.126Z,23.40
2023-05-06T22:05:44.744Z,26.02
2023-05-06T22:07:47.361Z,26.05
2023-05-06T22:09:49.874Z,26.10
2023-05-06T22:11:52.352Z,25.67
2023-05-06T22:13:58.145Z,26.95
2023-05-06T22:16:00.781Z,26.75
2023-05-06T22:18:03.668Z,27.70
2023-05-06T22:20:11.125Z,27.70
2023-05-06T22:22:13.622Z,26.45
2023-05-06T22:24:16.178Z,26.33
2023-05-06T22:26:18.678Z,27.10
2023-05-06T22:28:21.774Z,27.45
2023-05-06T22:30:26.961Z,25.38
2023-05-06T22:32:29.771Z,24.90
2023-05-06T22:34:32.319Z,26.27
2023-05-06T22:36:34.895Z,27.15
2023-05-06T22:38:37.794Z,23.20
2023-05-06T22:40:50.639Z,25.75
2023-05-06T22:42:53.169Z,24.00
2023-05-06T22:44:58.704Z,25.65
2023-05-06T22:47:03.934Z,25.45
2023-05-06T22:49:06.919Z,26.70
2023-05-06T22:51:14.147Z,26.02
2023-05-06T22:53:18.831Z,24.20
2023-05-06T22:55:21.591Z,25.73
2023-05-06T22:57:25.645Z,28.20
2023-05-06T22:59:33.459Z,34.88
2023-05-06T23:01:36.462Z,26.33
2023-05-06T23:03:41.910Z,25.27
2023-05-06T23:05:44.810Z,25.02
2023-05-06T23:07:47.378Z,31.10
2023-05-06T23:09:49.841Z,26.38
2023-05-06T23:11:54.797Z,28.52
2023-05-06T23:13:58.211Z,26.33
2023-05-06T23:16:00.746Z,30.05
2023-05-06T23:18:03.440Z,25.77
2023-05-06T23:20:12.983Z,27.92
2023-05-06T23:22:15.465Z,26.45
2023-05-06T23:24:17.990Z,30.40
2023-05-06T23:26:20.956Z,29.88
2023-05-06T23:28:23.456Z,26.15
2023-05-06T23:30:26.225Z,29.33
2023-05-06T23:32:28.880Z,25.27
2023-05-06T23:34:31.307Z,26.27
2023-05-06T23:36:37.226Z,28.65
2023-05-06T23:38:39.726Z,30.92
2023-05-06T23:40:42.184Z,29.63
2023-05-06T23:42:44.632Z,28.77
2023-05-06T23:44:48.375Z,28.92
2023-05-06T23:46:52.236Z,29.65
2023-05-06T23:48:54.933Z,31.73
2023-05-06T23:50:57.456Z,30.05
2023-05-06T23:53:04.877Z,26.67
2023-05-06T23:55:09.127Z,25.30
2023-05-06T23:57:12.024Z,27.10
2023-05-06T23:59:14.459Z,24.98
